Time;durP1;ratioP1;P1;durP2;ratioP2;P2;SDS_P1;SDS_P2;PMS_P1;PMS_P2;Temp;Humidity;BMP_temperature;BMP_pressure;BME280_temperature;BME280_humidity;BME280_pressure;Samples;Min_cycle;Max_cycle;Signal;HPM_P1;HPM_P2
2023/04/15 00:00:58;;;;;;;8.32;4.28;;;;;;;5.42;91.74;100477.94;5027537;28;20040;-77
2023/04/15 00:03:24;;;;;;;6.38;3.88;;;;;;;5.42;92.04;100480.50;5046531;28;20036;-78
2023/04/15 00:05:49;;;;;;;8.10;3.72;;;;;;;5.38;91.85;100476.56;5045076;28;20094;-77
2023/04/15 00:08:15;;;;;;;11.23;4.18;;;;;;;5.33;92.03;100473.56;5045545;28;20055;-80
2023/04/15 00:10:43;;;;;;;8.18;4.18;;;;;;;5.26;92.15;100476.66;5046804;28;20087;-77
2023/04/15 00:13:09;;;;;;;6.97;4.20;;;;;;;5.23;91.79;100476.91;5047864;28;20059;-77
2023/04/15 00:15:34;;;;;;;8.07;3.97;;;;;;;5.23;91.96;100471.75;5026440;28;20032;-77
2023/04/15 00:18:00;;;;;;;10.45;3.95;;;;;;;5.22;92.13;100472.72;5043702;28;20032;-78
2023/04/15 00:20:25;;;;;;;12.13;3.97;;;;;;;5.22;91.71;100477.06;5024907;28;20037;-78
2023/04/15 00:22:51;;;;;;;10.90;4.50;;;;;;;5.22;92.46;100471.91;5028171;28;20039;-78
2023/04/15 00:25:16;;;;;;;8.63;4.20;;;;;;;5.19;92.51;100478.13;5042535;28;20048;-77
2023/04/15 00:27:42;;;;;;;8.40;4.13;;;;;;;5.16;92.24;100478.38;5045495;28;20029;-77
2023/04/15 00:30:08;;;;;;;7.68;4.18;;;;;;;5.12;92.30;100474.41;5042368;28;20048;-78
2023/04/15 00:32:34;;;;;;;13.35;4.25;;;;;;;5.10;92.10;100475.50;5040787;28;20115;-78
2023/04/15 00:34:59;;;;;;;9.88;3.90;;;;;;;5.09;92.61;100481.59;5028852;28;20693;-76
2023/04/15 00:37:25;;;;;;;10.20;3.97;;;;;;;5.05;92.54;100479.28;5044699;28;20394;-79
2023/04/15 00:39:51;;;;;;;12.93;4.65;;;;;;;5.03;92.65;100464.94;5048215;28;20434;-77
2023/04/15 00:42:18;;;;;;;11.88;3.80;;;;;;;4.99;93.30;100468.69;5028832;28;20049;-78
2023/04/15 00:44:44;;;;;;;8.02;3.45;;;;;;;4.96;93.44;100474.91;5034600;28;20045;-77
2023/04/15 00:47:10;;;;;;;11.80;3.90;;;;;;;4.94;93.69;100470.84;5029475;28;20040;-79
2023/04/15 00:49:35;;;;;;;5.28;3.67;;;;;;;4.91;93.63;100479.59;5049252;28;20028;-78
2023/04/15 00:52:01;;;;;;;9.02;3.40;;;;;;;4.87;93.86;100483.38;5049990;28;20033;-77
2023/04/15 00:54:27;;;;;;;6.20;3.58;;;;;;;4.85;93.94;100486.06;5042855;28;20032;-78
2023/04/15 00:56:52;;;;;;;8.00;3.83;;;;;;;4.82;94.04;100483.75;5028282;28;20148;-77
2023/04/15 00:59:20;;;;;;;10.90;4.55;;;;;;;4.83;94.29;100485.38;5049567;28;20037;-78
2023/04/15 01:01:45;;;;;;;9.43;3.95;;;;;;;4.76;93.64;100484.25;5046795;28;20684;-77
2023/04/15 01:04:11;;;;;;;11.45;3.70;;;;;;;4.66;93.47;100483.38;5032620;28;20029;-78
2023/04/15 01:06:37;;;;;;;11.05;4.18;;;;;;;4.54;93.51;100490.34;5045501;28;20043;-77
2023/04/15 01:09:03;;;;;;;9.63;4.07;;;;;;;4.43;93.64;100477.53;5048491;28;20017;-77
2023/04/15 01:11:30;;;;;;;9.18;4.25;;;;;;;4.36;93.96;100482.34;5046560;28;20029;-77
2023/04/15 01:13:57;;;;;;;10.98;4.97;;;;;;;4.33;94.40;100484.34;5052030;28;20021;-78
2023/04/15 01:16:23;;;;;;;11.85;5.15;;;;;;;4.29;94.82;100487.19;5044613;28;20607;-77
2023/04/15 01:18:49;;;;;;;10.57;5.15;;;;;;;4.25;94.47;100492.66;5032841;28;20572;-77
2023/04/15 01:21:15;;;;;;;9.73;4.63;;;;;;;4.20;94.60;100485.34;5046176;28;20112;-78
2023/04/15 01:23:42;;;;;;;7.82;4.57;;;;;;;4.16;94.65;100490.81;5044971;28;20029;-77
2023/04/15 01:26:08;;;;;;;7.82;4.60;;;;;;;4.12;94.89;100481.75;5017172;28;20037;-77
2023/04/15 01:28:35;;;;;;;8.20;4.30;;;;;;;4.10;95.28;100487.00;5041978;28;20549;-77
2023/04/15 01:31:11;;;;;;;8.57;4.28;;;;;;;4.07;95.56;100482.94;5042434;28;20029;-77
2023/04/15 01:33:37;;;;;;;8.50;4.15;;;;;;;4.10;96.02;100485.22;5045362;28;20033;-77
2023/04/15 01:36:04;;;;;;;9.27;5.10;;;;;;;4.11;96.07;100480.94;5026009;28;20056;-78
2023/04/15 01:38:30;;;;;;;7.35;4.40;;;;;;;4.12;95.95;100479.97;5045804;28;20028;-77
2023/04/15 01:40:56;;;;;;;12.32;4.57;;;;;;;4.12;95.81;100476.59;5032627;28;20123;-77
2023/04/15 01:43:24;;;;;;;8.43;4.60;;;;;;;4.11;95.90;100475.81;5027349;28;20033;-77
2023/04/15 01:45:50;;;;;;;12.00;5.80;;;;;;;4.08;95.80;100479.41;5041973;28;20466;-78
2023/04/15 01:48:15;;;;;;;11.02;5.63;;;;;;;4.09;95.85;100486.19;5044898;28;20043;-77
2023/04/15 01:50:42;;;;;;;8.95;4.35;;;;;;;4.08;95.71;100491.44;5025680;28;20667;-77
2023/04/15 01:53:07;;;;;;;9.15;4.72;;;;;;;4.07;95.65;100489.81;5028790;28;20032;-77
2023/04/15 01:55:33;;;;;;;9.52;4.68;;;;;;;4.06;95.61;100485.59;5010890;28;20471;-77
2023/04/15 01:57:58;;;;;;;8.20;4.72;;;;;;;4.02;95.40;100490.16;5027969;28;20058;-77
2023/04/15 02:00:24;;;;;;;9.38;4.60;;;;;;;3.96;95.45;100488.09;5040784;28;20403;-77
2023/04/15 02:02:50;;;;;;;7.70;4.85;;;;;;;3.89;95.67;100484.38;5046127;28;20523;-77
2023/04/15 02:05:16;;;;;;;7.50;4.25;;;;;;;3.80;95.79;100480.75;5009074;28;20037;-77
2023/04/15 02:07:47;;;;;;;10.95;5.15;;;;;;;3.75;96.12;100479.50;5028406;28;20036;-78
2023/04/15 02:10:12;;;;;;;7.35;4.55;;;;;;;3.74;96.50;100476.13;5027593;28;20037;-77
2023/04/15 02:12:38;;;;;;;9.13;4.40;;;;;;;3.75;96.58;100485.44;5050964;28;20094;-77
2023/04/15 02:15:06;;;;;;;11.13;5.15;;;;;;;3.72;96.49;100479.75;5013767;28;20029;-77
2023/04/15 02:17:35;;;;;;;8.40;4.45;;;;;;;3.66;96.48;100481.84;5046200;28;20025;-78
2023/04/15 02:20:01;;;;;;;8.93;4.28;;;;;;;3.60;96.39;100487.44;5042511;28;20076;-77
2023/04/15 02:22:26;;;;;;;9.10;4.72;;;;;;;3.56;96.02;100493.75;5048493;28;20025;-77
2023/04/15 02:24:52;;;;;;;9.10;4.88;;;;;;;3.53;96.56;100488.84;5046376;28;20021;-77
2023/04/15 02:27:17;;;;;;;9.15;4.85;;;;;;;3.48;96.56;100488.38;5030891;28;20496;-77
2023/04/15 02:29:44;;;;;;;9.10;5.05;;;;;;;3.42;96.82;100496.53;5045756;28;20029;-78
2023/04/15 02:32:10;;;;;;;11.80;5.43;;;;;;;3.40;97.05;100498.41;5045714;28;20073;-77
2023/04/15 02:34:40;;;;;;;10.95;5.00;;;;;;;3.41;97.29;100500.03;5029085;28;20076;-77
2023/04/15 02:37:06;;;;;;;12.02;5.28;;;;;;;3.41;97.50;100502.59;5030852;28;20041;-78
2023/04/15 02:39:34;;;;;;;10.23;5.28;;;;;;;3.44;97.44;100498.06;5044630;28;20112;-77
2023/04/15 02:42:00;;;;;;;14.73;6.15;;;;;;;3.46;97.33;100503.88;5010619;28;20048;-77
2023/04/15 02:44:26;;;;;;;12.38;6.10;;;;;;;3.47;97.40;100505.53;5050955;28;20033;-77
2023/04/15 02:46:57;;;;;;;11.05;5.82;;;;;;;3.46;97.62;100501.31;5029136;28;20075;-77
2023/04/15 02:49:23;;;;;;;17.55;6.00;;;;;;;3.45;97.36;100509.94;5028418;28;20051;-78
2023/04/15 02:51:50;;;;;;;9.32;5.53;;;;;;;3.42;97.43;100517.06;5029844;28;20045;-77
2023/04/15 02:54:21;;;;;;;11.43;5.28;;;;;;;3.35;97.51;100518.44;5047173;28;20417;-77
2023/04/15 02:56:47;;;;;;;12.13;5.70;;;;;;;3.31;97.70;100516.13;5029843;28;20120;-77
2023/04/15 02:59:13;;;;;;;12.18;6.78;;;;;;;3.30;97.95;100521.38;5048496;28;20056;-80
2023/04/15 03:01:38;;;;;;;11.00;5.93;;;;;;;3.32;98.09;100522.06;5047340;28;20033;-77
2023/04/15 03:04:03;;;;;;;12.48;6.13;;;;;;;3.30;98.09;100522.19;5030988;28;20036;-77
2023/04/15 03:06:29;;;;;;;12.13;5.40;;;;;;;3.27;98.07;100524.97;5045120;28;20033;-77
2023/04/15 03:08:55;;;;;;;11.27;5.93;;;;;;;3.18;98.33;100520.53;5033279;28;20422;-77
2023/04/15 03:11:22;;;;;;;9.90;5.68;;;;;;;3.11;98.40;100524.50;5047651;28;20037;-77
2023/04/15 03:13:47;;;;;;;10.02;5.75;;;;;;;3.06;99.10;100527.38;5033387;28;20082;-77
2023/04/15 03:16:28;;;;;;;10.93;5.65;;;;;;;3.02;98.71;100526.00;5029615;28;20099;-77
2023/04/15 03:18:53;;;;;;;12.23;6.05;;;;;;;2.99;98.91;100517.72;5048493;28;20037;-77
2023/04/15 03:21:22;;;;;;;10.75;5.90;;;;;;;2.96;99.29;100523.88;5030176;28;20033;-77
2023/04/15 03:23:48;;;;;;;13.07;6.57;;;;;;;2.95;99.41;100529.94;5049060;28;20044;-77
2023/04/15 03:26:27;;;;;;;12.32;6.18;;;;;;;2.97;99.32;100519.56;5027757;28;20045;-77
2023/04/15 03:28:53;;;;;;;10.40;5.95;;;;;;;3.00;99.15;100537.28;5068489;22;20044;-73
2023/04/15 03:31:19;;;;;;;12.90;6.28;;;;;;;3.00;99.57;100535.53;5067942;28;20501;-72
2023/04/15 03:33:44;;;;;;;13.85;6.35;;;;;;;2.98;99.29;100534.84;5080963;28;20025;-73
2023/04/15 03:36:10;;;;;;;17.13;6.70;;;;;;;2.98;99.32;100534.84;5064550;28;20032;-73
2023/04/15 03:38:35;;;;;;;13.20;6.82;;;;;;;2.98;99.50;100531.47;5075668;28;20047;-73
2023/04/15 03:41:01;;;;;;;11.00;6.40;;;;;;;2.96;99.24;100525.59;5089101;28;20504;-73
2023/04/15 03:43:26;;;;;;;15.13;7.25;;;;;;;2.98;99.39;100531.47;5086013;28;20077;-73
2023/04/15 03:45:52;;;;;;;10.77;6.13;;;;;;;2.99;99.42;100535.63;5071292;28;20093;-73
2023/04/15 03:48:17;;;;;;;11.38;6.60;;;;;;;2.99;99.37;100545.88;5060582;28;20047;-73
2023/04/15 03:50:43;;;;;;;15.15;7.55;;;;;;;2.96;99.35;100549.50;5094375;28;20036;-72
2023/04/15 03:53:08;;;;;;;19.13;8.27;;;;;;;2.92;99.45;100553.22;5090803;28;20039;-73
2023/04/15 03:55:34;;;;;;;15.35;7.28;;;;;;;2.88;99.54;100550.06;5097927;28;20036;-73
2023/04/15 03:57:59;;;;;;;17.63;7.72;;;;;;;2.85;99.71;100550.28;5090291;28;20417;-72
2023/04/15 04:00:25;;;;;;;19.00;8.00;;;;;;;2.86;100.00;100545.97;5073888;28;20059;-73
2023/04/15 04:02:50;;;;;;;18.95;7.85;;;;;;;2.87;100.00;100547.63;5071605;28;20480;-72
2023/04/15 04:05:16;;;;;;;16.60;8.43;;;;;;;2.88;99.88;100547.50;5094741;28;20035;-72
2023/04/15 04:07:41;;;;;;;14.82;7.80;;;;;;;2.88;100.00;100562.88;5065789;28;20024;-73
2023/04/15 04:10:07;;;;;;;15.73;6.97;;;;;;;2.85;100.00;100552.84;5097733;28;20496;-73
2023/04/15 04:12:32;;;;;;;18.08;8.32;;;;;;;2.82;100.00;100555.63;5088266;28;20442;-73
2023/04/15 04:14:58;;;;;;;14.00;7.68;;;;;;;2.81;100.00;100561.69;5085673;28;20028;-73
2023/04/15 04:17:23;;;;;;;19.20;8.32;;;;;;;2.81;100.00;100566.81;5086228;28;20560;-73
2023/04/15 04:19:49;;;;;;;12.30;6.93;;;;;;;2.82;100.00;100565.03;5090187;28;20042;-73
2023/04/15 04:22:14;;;;;;;16.00;7.93;;;;;;;2.81;100.00;100574.50;5089605;28;20081;-72
2023/04/15 04:24:40;;;;;;;17.73;8.27;;;;;;;2.80;100.00;100572.84;5089498;28;20035;-72
2023/04/15 04:27:05;;;;;;;19.20;9.05;;;;;;;2.80;100.00;100579.72;5090378;28;20055;-74
2023/04/15 04:29:31;;;;;;;15.55;7.82;;;;;;;2.79;100.00;100581.47;5087614;28;20036;-72
2023/04/15 04:31:56;;;;;;;15.45;8.55;;;;;;;2.79;100.00;100578.06;5088196;28;20043;-73
2023/04/15 04:34:22;;;;;;;18.77;8.90;;;;;;;2.78;100.00;100579.81;5090045;28;20387;-72
2023/04/15 04:36:47;;;;;;;14.23;8.00;;;;;;;2.79;100.00;100580.63;5088529;28;20039;-72
2023/04/15 04:39:13;;;;;;;14.38;9.13;;;;;;;2.80;100.00;100580.53;5091993;28;20038;-73
2023/04/15 04:41:38;;;;;;;20.50;8.95;;;;;;;2.80;100.00;100582.28;5091203;28;20029;-73
2023/04/15 04:44:04;;;;;;;17.67;9.32;;;;;;;2.78;100.00;100584.94;5063706;28;20371;-72
2023/04/15 04:46:29;;;;;;;20.77;9.68;;;;;;;2.79;100.00;100596.81;5067335;28;20047;-73
2023/04/15 04:48:55;;;;;;;16.42;9.27;;;;;;;2.79;100.00;100594.28;5088134;28;20020;-73
2023/04/15 04:51:20;;;;;;;18.45;9.43;;;;;;;2.81;100.00;100604.41;5066379;28;20037;-72
2023/04/15 04:53:46;;;;;;;16.45;9.70;;;;;;;2.81;100.00;100606.97;5085052;28;20127;-72
2023/04/15 04:56:11;;;;;;;20.20;9.98;;;;;;;2.83;100.00;100608.47;5085848;28;20039;-73
2023/04/15 04:58:37;;;;;;;20.75;10.18;;;;;;;2.85;100.00;100595.56;5088061;28;20020;-73
2023/04/15 05:01:02;;;;;;;22.23;11.73;;;;;;;2.89;100.00;100610.59;5089887;28;20489;-72
2023/04/15 05:03:28;;;;;;;24.90;11.23;;;;;;;2.92;100.00;100610.38;5086822;28;20597;-72
2023/04/15 05:05:53;;;;;;;21.30;11.15;;;;;;;2.95;100.00;100608.53;5083098;28;20060;-72
2023/04/15 05:08:19;;;;;;;21.48;12.07;;;;;;;3.05;100.00;100610.31;5089526;28;20508;-72
2023/04/15 05:10:45;;;;;;;25.65;13.18;;;;;;;3.13;100.00;100614.88;5086578;28;20036;-73
2023/04/15 05:13:11;;;;;;;25.50;12.00;;;;;;;3.19;100.00;100614.41;5068701;28;20094;-72
2023/04/15 05:15:38;;;;;;;22.77;13.07;;;;;;;3.21;100.00;100622.00;5089001;28;20043;-72
2023/04/15 05:18:04;;;;;;;22.88;12.82;;;;;;;3.29;100.00;100628.19;5053131;28;20101;-72
2023/04/15 05:20:29;;;;;;;28.45;12.68;;;;;;;3.34;100.00;100625.28;5086824;28;20036;-72
2023/04/15 05:22:54;;;;;;;31.02;13.43;;;;;;;3.50;100.00;100635.22;5051272;28;20039;-72
2023/04/15 05:25:20;;;;;;;31.55;14.23;;;;;;;3.53;100.00;100632.44;5092819;28;20123;-72
2023/04/15 05:27:45;;;;;;;27.10;12.65;;;;;;;3.58;100.00;100634.63;5083253;28;22088;-72
2023/04/15 05:30:11;;;;;;;22.75;11.88;;;;;;;3.61;100.00;100640.38;5069631;28;20040;-72
2023/04/15 05:32:37;;;;;;;22.92;12.98;;;;;;;3.62;100.00;100643.75;5071793;28;20032;-72
2023/04/15 05:35:03;;;;;;;20.00;12.05;;;;;;;3.66;100.00;100650.28;5094794;28;20035;-72
2023/04/15 05:37:28;;;;;;;21.75;12.60;;;;;;;3.69;100.00;100652.59;5084766;28;20036;-72
2023/04/15 05:39:53;;;;;;;24.70;12.52;;;;;;;3.73;100.00;100648.91;5078318;28;20035;-73
2023/04/15 05:42:19;;;;;;;24.40;13.80;;;;;;;3.79;100.00;100652.75;5069939;28;20024;-72
2023/04/15 05:44:44;;;;;;;23.70;12.80;;;;;;;3.85;100.00;100657.41;5085170;28;20028;-72
2023/04/15 05:47:10;;;;;;;26.25;13.55;;;;;;;3.92;100.00;100663.72;5067780;28;20029;-72
2023/04/15 05:49:36;;;;;;;26.83;13.07;;;;;;;4.00;100.00;100661.38;5087440;28;20505;-72
2023/04/15 05:52:01;;;;;;;24.13;13.43;;;;;;;4.10;100.00;100653.78;5085808;28;20064;-73
2023/04/15 05:54:27;;;;;;;28.10;13.85;;;;;;;4.20;100.00;100656.47;5088160;28;20392;-72
2023/04/15 05:56:53;;;;;;;27.85;15.20;;;;;;;4.37;100.00;100658.56;5088363;28;20092;-72
2023/04/15 05:59:18;;;;;;;27.08;15.38;;;;;;;4.52;100.00;100666.84;5084900;28;20039;-72
2023/04/15 06:01:44;;;;;;;32.35;16.75;;;;;;;4.65;100.00;100669.22;5087969;28;20051;-72
2023/04/15 06:04:10;;;;;;;31.92;16.90;;;;;;;4.76;100.00;100671.78;5054195;28;20127;-72
2023/04/15 06:06:37;;;;;;;33.85;16.50;;;;;;;4.91;100.00;100671.50;5065035;28;20039;-72
2023/04/15 06:09:03;;;;;;;31.60;16.15;;;;;;;5.02;100.00;100669.69;5066993;28;20082;-72
2023/04/15 06:11:28;;;;;;;33.35;16.58;;;;;;;5.17;100.00;100679.72;5087729;28;20038;-72
2023/04/15 06:13:54;;;;;;;30.92;17.13;;;;;;;5.28;100.00;100678.84;5084672;28;20032;-72
2023/04/15 06:16:19;;;;;;;31.65;16.77;;;;;;;5.43;100.00;100677.59;5085950;28;20040;-72
2023/04/15 06:18:45;;;;;;;30.92;17.40;;;;;;;5.62;100.00;100685.41;5064735;28;20025;-72
2023/04/15 06:21:10;;;;;;;30.88;16.65;;;;;;;5.72;100.00;100688.03;5089546;28;20067;-72
2023/04/15 06:23:36;;;;;;;33.22;16.90;;;;;;;5.85;100.00;100688.66;5066355;28;20023;-72
2023/04/15 06:26:02;;;;;;;30.23;17.25;;;;;;;5.95;100.00;100687.88;5081215;28;20050;-72
2023/04/15 06:28:27;;;;;;;29.83;15.38;;;;;;;6.02;100.00;100695.00;5087511;28;20115;-72
2023/04/15 06:30:53;;;;;;;37.90;17.75;;;;;;;6.08;100.00;100698.81;5086412;28;20040;-72
2023/04/15 06:33:18;;;;;;;37.20;20.50;;;;;;;6.21;100.00;100707.13;5086584;28;20142;-72
2023/04/15 06:35:44;;;;;;;27.95;16.35;;;;;;;6.31;100.00;100714.91;5090577;28;20051;-72
2023/04/15 06:38:09;;;;;;;33.45;15.80;;;;;;;6.46;100.00;100707.66;5087657;28;20028;-72
2023/04/15 06:40:35;;;;;;;30.42;15.70;;;;;;;6.54;100.00;100717.28;5085974;28;20513;-72
2023/04/15 06:43:01;;;;;;;29.55;14.85;;;;;;;6.70;98.37;100725.31;5070261;28;20047;-72
2023/04/15 06:45:26;;;;;;;27.73;14.85;;;;;;;6.77;98.13;100716.09;5078834;28;20946;-72
2023/04/15 06:47:52;;;;;;;34.50;18.60;;;;;;;6.94;98.27;100717.22;5064726;28;20093;-72
2023/04/15 06:50:17;;;;;;;24.95;14.18;;;;;;;7.01;97.26;100731.22;5081524;28;20436;-72
2023/04/15 06:52:43;;;;;;;26.13;13.73;;;;;;;7.20;95.66;100725.25;5066827;28;20443;-72
2023/04/15 06:55:09;;;;;;;28.27;13.38;;;;;;;7.24;95.70;100732.72;5085513;28;20040;-72
2023/04/15 06:57:34;;;;;;;21.08;13.10;;;;;;;7.40;95.72;100732.97;5085958;28;20082;-72
2023/04/15 07:00:00;;;;;;;28.20;13.10;;;;;;;7.51;94.50;100748.31;5092890;28;20089;-72
2023/04/15 07:02:26;;;;;;;22.52;12.15;;;;;;;7.75;93.54;100747.88;5103130;28;20032;-71
2023/04/15 07:04:51;;;;;;;25.33;13.18;;;;;;;7.94;91.83;100753.94;5085311;28;20039;-72
2023/04/15 07:07:17;;;;;;;21.02;12.35;;;;;;;8.12;90.70;100754.06;5046130;28;20039;-72
2023/04/15 07:09:43;;;;;;;23.15;12.05;;;;;;;8.21;90.49;100753.19;5083869;28;20032;-72
2023/04/15 07:12:08;;;;;;;23.98;11.73;;;;;;;8.61;89.04;100761.63;5085109;28;20123;-72
2023/04/15 07:14:35;;;;;;;19.35;11.98;;;;;;;8.61;86.92;100759.03;5097009;28;20076;-72
2023/04/15 07:17:01;;;;;;;24.38;11.93;;;;;;;8.82;86.54;100767.38;5083681;28;20083;-72
2023/04/15 07:19:26;;;;;;;19.98;11.95;;;;;;;8.87;87.11;100772.09;5085539;28;20060;-72
2023/04/15 07:21:52;;;;;;;22.70;12.32;;;;;;;9.04;86.53;100763.56;5066346;28;20040;-72
2023/04/15 07:24:18;;;;;;;19.17;11.30;;;;;;;9.29;84.28;100769.75;5069560;28;20028;-72
2023/04/15 07:26:44;;;;;;;24.17;11.85;;;;;;;9.50;84.12;100771.25;5083522;28;20489;-72
2023/04/15 07:29:10;;;;;;;22.52;12.05;;;;;;;9.41;84.00;100766.94;5089905;28;20030;-72
2023/04/15 07:31:35;;;;;;;26.15;12.98;;;;;;;9.27;85.67;100774.28;5084228;28;20773;-72
2023/04/15 07:34:02;;;;;;;20.90;11.45;;;;;;;9.46;85.91;100775.91;5069154;28;20069;-72
2023/04/15 07:36:28;;;;;;;31.67;14.25;;;;;;;9.43;84.68;100788.31;5069837;28;20439;-72
2023/04/15 07:38:54;;;;;;;26.80;15.13;;;;;;;9.47;84.48;100789.66;5072641;28;20047;-72
2023/04/15 07:41:20;;;;;;;37.85;16.73;;;;;;;9.57;83.48;100785.22;5089028;28;20031;-72
2023/04/15 07:43:47;;;;;;;31.95;15.18;;;;;;;9.82;83.06;100793.97;5072150;28;20168;-72
2023/04/15 07:46:13;;;;;;;26.23;13.93;;;;;;;9.80;82.13;100801.09;5087873;28;20039;-72
2023/04/15 07:48:38;;;;;;;24.00;12.18;;;;;;;9.85;80.75;100800.63;5073006;28;20396;-73
2023/04/15 07:51:04;;;;;;;22.55;12.18;;;;;;;9.92;82.92;100797.28;5090720;28;20035;-72
2023/04/15 07:53:31;;;;;;;20.75;12.38;;;;;;;10.07;82.15;100812.28;5070696;28;20056;-72
2023/04/15 07:55:57;;;;;;;19.85;10.07;;;;;;;10.16;81.91;100813.16;5054681;28;20047;-72
2023/04/15 07:58:23;;;;;;;18.27;9.90;;;;;;;10.22;78.51;100809.94;5089219;28;20035;-72
2023/04/15 08:00:48;;;;;;;19.60;9.85;;;;;;;10.23;77.86;100811.56;5070519;28;20051;-72
2023/04/15 08:03:14;;;;;;;20.98;10.40;;;;;;;10.36;78.07;100817.19;5084181;28;20031;-72
2023/04/15 08:05:39;;;;;;;15.20;9.85;;;;;;;10.51;76.18;100817.41;5085436;28;20702;-72
2023/04/15 08:08:05;;;;;;;18.52;9.25;;;;;;;10.73;76.77;100817.81;5092880;28;20038;-72
2023/04/15 08:10:31;;;;;;;16.45;10.15;;;;;;;10.86;76.64;100821.59;5089403;28;20043;-72
2023/04/15 08:12:57;;;;;;;14.52;9.18;;;;;;;10.95;74.98;100822.44;5070229;28;20085;-72
2023/04/15 08:15:23;;;;;;;14.70;8.68;;;;;;;10.96;73.89;100818.06;5086632;28;20028;-72
2023/04/15 08:17:48;;;;;;;16.05;9.10;;;;;;;11.01;74.52;100824.41;5100196;28;20080;-72
2023/04/15 08:20:14;;;;;;;12.35;8.18;;;;;;;11.27;71.14;100824.28;5088354;28;20032;-72
2023/04/15 08:22:39;;;;;;;13.93;7.63;;;;;;;11.78;70.43;100818.97;5084925;28;20048;-72
2023/04/15 08:25:05;;;;;;;13.02;7.45;;;;;;;11.83;68.71;100821.91;5091981;28;20482;-72
2023/04/15 08:27:31;;;;;;;13.07;7.53;;;;;;;11.71;68.59;100825.78;5085118;28;20085;-72
2023/04/15 08:29:56;;;;;;;11.70;6.57;;;;;;;11.90;66.72;100824.66;5063960;28;20083;-73
2023/04/15 08:32:22;;;;;;;12.32;6.95;;;;;;;12.03;67.75;100829.38;5070972;28;20024;-72
2023/04/15 08:34:47;;;;;;;11.13;6.43;;;;;;;11.91;67.90;100828.09;5065781;28;20516;-73
2023/04/15 08:37:13;;;;;;;15.45;8.45;;;;;;;11.72;66.63;100830.03;5087734;28;20035;-72
2023/04/15 08:39:38;;;;;;;12.57;6.05;;;;;;;11.63;66.96;100834.38;5072164;28;20032;-72
2023/04/15 08:42:10;;;;;;;11.07;5.68;;;;;;;11.63;67.15;100837.00;5087354;28;20043;-72
2023/04/15 08:44:37;;;;;;;9.77;5.95;;;;;;;11.75;68.65;100842.66;5071575;28;20081;-72
2023/04/15 08:47:06;;;;;;;15.45;6.35;;;;;;;11.83;69.10;100841.88;5090748;28;20043;-72
2023/04/15 08:49:31;;;;;;;11.43;6.15;;;;;;;11.77;68.09;100855.50;5087239;28;20100;-72
2023/04/15 08:51:59;;;;;;;8.35;5.30;;;;;;;11.66;67.15;100847.06;5090698;28;20489;-72
2023/04/15 08:54:25;;;;;;;6.60;4.57;;;;;;;11.70;65.02;100855.34;5081553;28;20107;-72
2023/04/15 08:56:52;;;;;;;10.40;5.18;;;;;;;11.67;64.74;100851.28;5090378;28;20097;-72
2023/04/15 08:59:20;;;;;;;9.27;4.88;;;;;;;11.80;65.42;100858.59;5086678;28;20478;-72
2023/04/15 09:01:46;;;;;;;18.35;9.90;;;;;;;11.99;64.67;100852.28;5067031;28;20105;-72
2023/04/15 09:04:11;;;;;;;12.25;5.57;;;;;;;12.17;64.39;100852.09;5085721;28;20884;-71
2023/04/15 09:06:38;;;;;;;9.13;4.25;;;;;;;12.24;63.41;100857.44;5084218;28;20078;-71
2023/04/15 09:09:04;;;;;;;9.35;5.13;;;;;;;12.14;63.28;100854.22;5088323;28;20081;-71
2023/04/15 09:11:30;;;;;;;9.02;5.00;;;;;;;11.92;63.18;100866.09;5089450;28;20502;-71
2023/04/15 09:13:55;;;;;;;9.20;5.10;;;;;;;12.00;62.35;100869.50;5087100;28;20358;-71
2023/04/15 09:16:21;;;;;;;7.10;4.72;;;;;;;11.98;60.70;100863.66;5084025;28;20405;-71
2023/04/15 09:18:46;;;;;;;8.02;4.13;;;;;;;11.92;60.43;100874.69;5068991;28;20525;-71
2023/04/15 09:21:16;;;;;;;12.88;7.00;;;;;;;11.79;61.46;100869.97;5084219;28;20035;-71
2023/04/15 09:23:59;;;;;;;22.98;9.80;;;;;;;11.83;64.35;100870.47;5087945;28;20032;-71
2023/04/15 09:26:33;;;;;;;10.82;6.10;;;;;;;11.90;63.24;100871.44;5098996;28;20036;-71
2023/04/15 09:29:09;;;;;;;11.38;6.68;;;;;;;12.18;62.19;100878.91;5068658;28;20516;-72
2023/04/15 09:31:36;;;;;;;11.43;4.15;;;;;;;12.21;62.04;100884.59;5096763;28;20478;-72
2023/04/15 09:34:02;;;;;;;10.68;5.78;;;;;;;12.60;61.54;100883.88;5092613;22;20032;-76
2023/04/15 09:36:30;;;;;;;14.00;6.25;;;;;;;12.75;61.84;100889.19;5060079;28;20770;-76
2023/04/15 09:38:57;;;;;;;11.38;7.32;;;;;;;12.97;62.43;100885.00;5066284;28;20034;-75
2023/04/15 09:41:24;;;;;;;13.73;6.97;;;;;;;13.03;59.58;100897.38;5080803;28;20040;-75
2023/04/15 09:43:50;;;;;;;7.28;3.97;;;;;;;12.78;58.49;100890.63;5075724;28;20391;-75
2023/04/15 09:46:15;;;;;;;10.82;5.68;;;;;;;12.69;59.62;100895.03;5062187;28;20043;-75
2023/04/15 09:48:41;;;;;;;8.23;3.83;;;;;;;12.75;60.37;100903.97;5079471;28;20208;-74
2023/04/15 09:51:06;;;;;;;8.95;4.88;;;;;;;12.68;61.32;100900.41;5080142;28;20056;-75
2023/04/15 09:53:34;;;;;;;5.85;3.67;;;;;;;12.54;60.14;100899.31;5062637;28;20040;-74
2023/04/15 09:56:01;;;;;;;6.43;3.15;;;;;;;12.63;60.42;100909.53;5059822;28;20647;-74
2023/04/15 09:58:34;;;;;;;5.55;3.30;;;;;;;12.74;61.27;100915.38;5079686;28;20107;-74
2023/04/15 10:01:00;;;;;;;;;;;;;;;12.43;60.52;100916.91;5058491;28;20127;-74
2023/04/15 10:03:35;;;;;;;9.75;4.80;;;;;;;12.43;60.67;100916.06;5078476;28;19919;-74
2023/04/15 10:06:02;;;;;;;10.57;3.88;;;;;;;12.59;61.54;100917.84;5062251;28;20170;-74
2023/04/15 10:08:32;;;;;;;5.65;3.65;;;;;;;12.69;61.69;100915.84;5079251;28;20635;-74
2023/04/15 10:11:00;;;;;;;6.43;3.60;;;;;;;12.80;62.01;100918.09;5061526;28;20171;-74
2023/04/15 10:13:31;;;;;;;9.85;4.03;;;;;;;12.85;61.11;100930.63;5066846;28;20383;-75
2023/04/15 10:16:00;;;;;;;9.52;4.43;;;;;;;12.98;59.46;100924.88;5044591;28;20075;-75
2023/04/15 10:18:27;;;;;;;5.90;3.00;;;;;;;12.85;61.44;100918.41;5065221;28;20039;-74
2023/04/15 10:20:53;;;;;;;8.45;3.25;;;;;;;13.02;61.63;100915.75;5066653;28;20051;-74
2023/04/15 10:23:21;;;;;;;7.47;3.15;;;;;;;13.27;60.88;100931.28;5078155;28;20040;-74
2023/04/15 10:25:48;;;;;;;5.28;2.60;;;;;;;13.09;60.05;100931.50;5063072;28;20078;-74
2023/04/15 10:28:15;;;;;;;10.43;4.05;;;;;;;12.87;60.85;100935.66;5046544;28;20393;-74
2023/04/15 10:30:42;;;;;;;12.10;4.95;;;;;;;12.89;62.89;100929.31;5060934;28;20097;-75
2023/04/15 10:33:08;;;;;;;8.25;4.22;;;;;;;12.79;61.32;100939.06;5099251;28;20032;-75
2023/04/15 10:35:35;;;;;;;4.68;2.80;;;;;;;12.68;62.58;100942.03;5063585;28;20032;-75
2023/04/15 10:38:01;;;;;;;6.07;3.40;;;;;;;12.76;62.86;100949.84;5061762;28;20028;-75
2023/04/15 10:40:31;;;;;;;8.25;3.80;;;;;;;12.66;62.32;100943.03;5063828;28;20119;-74
2023/04/15 10:42:58;;;;;;;6.03;3.80;;;;;;;12.69;62.99;100947.06;5063624;28;20668;-75
2023/04/15 10:45:26;;;;;;;13.25;4.20;;;;;;;12.84;63.30;100955.00;5080434;28;20028;-75
2023/04/15 10:47:56;;;;;;;4.93;3.28;;;;;;;12.81;61.95;100950.16;5064029;28;20549;-75
2023/04/15 10:50:25;;;;;;;6.57;4.00;;;;;;;12.82;61.18;100957.78;5079362;28;20107;-75
2023/04/15 10:52:51;;;;;;;6.30;3.78;;;;;;;13.15;62.21;100957.69;5084161;28;20040;-75
2023/04/15 10:55:30;;;;;;;6.45;3.90;;;;;;;13.44;60.84;100951.06;5083994;28;20097;-75
2023/04/15 10:58:00;;;;;;;6.68;3.88;;;;;;;13.58;62.56;100957.31;5061408;28;20024;-75
2023/04/15 11:00:29;;;;;;;7.03;4.78;;;;;;;13.71;60.86;100951.56;5076006;28;21298;-74
2023/04/15 11:03:05;;;;;;;6.40;4.35;;;;;;;13.92;60.13;100953.53;5084055;28;20303;-75
2023/04/15 11:05:51;;;;;;;5.68;4.07;;;;;;;13.53;59.28;100962.25;5078451;28;20038;-75
2023/04/15 11:08:17;;;;;;;4.28;2.75;;;;;;;13.04;58.99;100966.66;5058609;28;20090;-75
2023/04/15 11:10:43;;;;;;;5.88;3.42;;;;;;;12.99;59.63;100960.34;5061896;28;20044;-74
2023/04/15 11:13:08;;;;;;;6.90;3.83;;;;;;;13.08;60.80;100968.94;5064495;28;20042;-75
2023/04/15 11:15:37;;;;;;;6.03;3.42;;;;;;;13.01;62.11;100972.19;5080136;28;20114;-75
2023/04/15 11:18:19;;;;;;;7.53;3.47;;;;;;;12.79;62.07;100971.13;5084162;28;20154;-75